sensor_id;sensor_type;location;lat;lon;timestamp;P1;durP1;ratioP1;P2;durP2;ratioP2
2888;SDS011;1453;42.708;23.282;2024-01-11T00:01:48;36.05;;;19.40;;
2888;SDS011;1453;42.708;23.282;2024-01-11T00:04:14;37.60;;;18.95;;
2888;SDS011;1453;42.708;23.282;2024-01-11T00:06:43;43.40;;;21.83;;
2888;SDS011;1453;42.708;23.282;2024-01-11T00:09:10;41.80;;;20.70;;
2888;SDS011;1453;42.708;23.282;2024-01-11T00:11:36;51.08;;;27.30;;
2888;SDS011;1453;42.708;23.282;2024-01-11T00:14:02;38.28;;;20.77;;
2888;SDS011;1453;42.708;23.282;2024-01-11T00:16:28;66.00;;;30.88;;
2888;SDS011;1453;42.708;23.282;2024-01-11T00:18:54;117.47;;;50.70;;
2888;SDS011;1453;42.708;23.282;2024-01-11T00:21:20;79.10;;;38.93;;
2888;SDS011;1453;42.708;23.282;2024-01-11T00:23:46;87.97;;;44.10;;
2888;SDS011;1453;42.708;23.282;2024-01-11T00:26:12;80.00;;;38.67;;
2888;SDS011;1453;42.708;23.282;2024-01-11T00:28:38;82.40;;;40.10;;
2888;SDS011;1453;42.708;23.282;2024-01-11T00:31:04;85.55;;;42.42;;
2888;SDS011;1453;42.708;23.282;2024-01-11T00:33:30;80.22;;;40.53;;
2888;SDS011;1453;42.708;23.282;2024-01-11T00:35:57;87.35;;;43.67;;
2888;SDS011;1453;42.708;23.282;2024-01-11T00:38:23;75.85;;;38.03;;
2888;SDS011;1453;42.708;23.282;2024-01-11T00:40:49;63.20;;;32.60;;
2888;SDS011;1453;42.708;23.282;2024-01-11T00:43:15;77.70;;;40.17;;
2888;SDS011;1453;42.708;23.282;2024-01-11T00:45:41;87.75;;;42.00;;
2888;SDS011;1453;42.708;23.282;2024-01-11T00:48:08;83.47;;;43.20;;
2888;SDS011;1453;42.708;23.282;2024-01-11T00:50:34;86.00;;;38.97;;
2888;SDS011;1453;42.708;23.282;2024-01-11T00:53:00;69.80;;;33.63;;
2888;SDS011;1453;42.708;23.282;2024-01-11T00:55:26;73.40;;;33.90;;
2888;SDS011;1453;42.708;23.282;2024-01-11T00:57:52;61.90;;;33.75;;
2888;SDS011;1453;42.708;23.282;2024-01-11T01:00:18;74.17;;;35.20;;
2888;SDS011;1453;42.708;23.282;2024-01-11T01:02:44;64.40;;;30.80;;
2888;SDS011;1453;42.708;23.282;2024-01-11T01:05:11;63.25;;;31.27;;
2888;SDS011;1453;42.708;23.282;2024-01-11T01:07:39;64.03;;;30.33;;
2888;SDS011;1453;42.708;23.282;2024-01-11T01:10:05;60.03;;;28.83;;
2888;SDS011;1453;42.708;23.282;2024-01-11T01:12:34;57.63;;;25.58;;
2888;SDS011;1453;42.708;23.282;2024-01-11T01:15:00;52.93;;;24.43;;
2888;SDS011;1453;42.708;23.282;2024-01-11T01:17:26;54.67;;;25.83;;
2888;SDS011;1453;42.708;23.282;2024-01-11T01:19:51;55.47;;;26.00;;
2888;SDS011;1453;42.708;23.282;2024-01-11T01:22:17;53.13;;;26.30;;
2888;SDS011;1453;42.708;23.282;2024-01-11T01:24:43;51.78;;;27.25;;
2888;SDS011;1453;42.708;23.282;2024-01-11T01:27:09;54.30;;;26.48;;
2888;SDS011;1453;42.708;23.282;2024-01-11T01:32:01;49.47;;;26.70;;
2888;SDS011;1453;42.708;23.282;2024-01-11T01:34:27;41.28;;;23.30;;
2888;SDS011;1453;42.708;23.282;2024-01-11T01:36:53;40.70;;;21.10;;
2888;SDS011;1453;42.708;23.282;2024-01-11T01:39:19;46.17;;;22.10;;
2888;SDS011;1453;42.708;23.282;2024-01-11T01:41:45;48.87;;;27.07;;
2888;SDS011;1453;42.708;23.282;2024-01-11T01:44:11;54.38;;;26.35;;
2888;SDS011;1453;42.708;23.282;2024-01-11T01:46:37;53.20;;;25.50;;
2888;SDS011;1453;42.708;23.282;2024-01-11T01:49:04;46.50;;;22.95;;
2888;SDS011;1453;42.708;23.282;2024-01-11T01:51:31;44.60;;;20.40;;
2888;SDS011;1453;42.708;23.282;2024-01-11T01:53:58;44.63;;;20.23;;
2888;SDS011;1453;42.708;23.282;2024-01-11T01:56:25;48.17;;;22.52;;
2888;SDS011;1453;42.708;23.282;2024-01-11T01:58:52;46.05;;;22.60;;
2888;SDS011;1453;42.708;23.282;2024-01-11T02:01:19;41.70;;;20.30;;
2888;SDS011;1453;42.708;23.282;2024-01-11T02:03:49;43.95;;;19.85;;
2888;SDS011;1453;42.708;23.282;2024-01-11T02:06:16;43.80;;;21.48;;
2888;SDS011;1453;42.708;23.282;2024-01-11T02:08:43;44.50;;;19.48;;
2888;SDS011;1453;42.708;23.282;2024-01-11T02:11:10;51.40;;;22.70;;
2888;SDS011;1453;42.708;23.282;2024-01-11T02:13:37;45.30;;;23.10;;
2888;SDS011;1453;42.708;23.282;2024-01-11T02:16:03;53.95;;;25.35;;
2888;SDS011;1453;42.708;23.282;2024-01-11T02:18:29;46.67;;;24.55;;
2888;SDS011;1453;42.708;23.282;2024-01-11T02:20:56;45.13;;;22.25;;
2888;SDS011;1453;42.708;23.282;2024-01-11T02:23:24;46.55;;;22.25;;
2888;SDS011;1453;42.708;23.282;2024-01-11T02:25:51;42.13;;;21.02;;
2888;SDS011;1453;42.708;23.282;2024-01-11T02:28:17;32.45;;;20.23;;
2888;SDS011;1453;42.708;23.282;2024-01-11T02:30:44;37.35;;;19.58;;
2888;SDS011;1453;42.708;23.282;2024-01-11T02:33:10;43.83;;;22.88;;
2888;SDS011;1453;42.708;23.282;2024-01-11T02:35:41;43.95;;;22.48;;
2888;SDS011;1453;42.708;23.282;2024-01-11T02:38:08;49.97;;;25.60;;
2888;SDS011;1453;42.708;23.282;2024-01-11T02:40:34;51.25;;;22.90;;
2888;SDS011;1453;42.708;23.282;2024-01-11T02:43:09;41.80;;;21.70;;
2888;SDS011;1453;42.708;23.282;2024-01-11T02:45:35;40.45;;;21.65;;
2888;SDS011;1453;42.708;23.282;2024-01-11T02:48:02;38.28;;;22.60;;
2888;SDS011;1453;42.708;23.282;2024-01-11T02:50:28;48.83;;;23.42;;
2888;SDS011;1453;42.708;23.282;2024-01-11T02:52:54;43.73;;;24.77;;
2888;SDS011;1453;42.708;23.282;2024-01-11T02:55:20;56.70;;;26.17;;
2888;SDS011;1453;42.708;23.282;2024-01-11T03:00:32;52.97;;;24.25;;
2888;SDS011;1453;42.708;23.282;2024-01-11T03:02:58;51.83;;;25.27;;
2888;SDS011;1453;42.708;23.282;2024-01-11T03:05:24;49.47;;;25.50;;
2888;SDS011;1453;42.708;23.282;2024-01-11T03:07:50;49.83;;;26.03;;
2888;SDS011;1453;42.708;23.282;2024-01-11T03:10:16;50.10;;;22.63;;
2888;SDS011;1453;42.708;23.282;2024-01-11T03:12:42;42.92;;;21.73;;
2888;SDS011;1453;42.708;23.282;2024-01-11T03:15:08;46.42;;;23.70;;
2888;SDS011;1453;42.708;23.282;2024-01-11T03:17:34;43.05;;;21.23;;
2888;SDS011;1453;42.708;23.282;2024-01-11T03:20:00;41.28;;;22.27;;
2888;SDS011;1453;42.708;23.282;2024-01-11T03:22:28;46.50;;;23.35;;
2888;SDS011;1453;42.708;23.282;2024-01-11T03:24:54;37.47;;;20.47;;
2888;SDS011;1453;42.708;23.282;2024-01-11T03:27:20;38.15;;;20.15;;
2888;SDS011;1453;42.708;23.282;2024-01-11T03:29:47;38.85;;;20.83;;
2888;SDS011;1453;42.708;23.282;2024-01-11T03:32:14;36.25;;;19.30;;
2888;SDS011;1453;42.708;23.282;2024-01-11T03:34:42;47.92;;;19.77;;
2888;SDS011;1453;42.708;23.282;2024-01-11T03:37:08;46.38;;;18.95;;
2888;SDS011;1453;42.708;23.282;2024-01-11T03:39:34;43.00;;;20.50;;
2888;SDS011;1453;42.708;23.282;2024-01-11T03:42:00;35.00;;;17.70;;
2888;SDS011;1453;42.708;23.282;2024-01-11T03:44:28;35.33;;;18.23;;
2888;SDS011;1453;42.708;23.282;2024-01-11T03:46:56;42.65;;;18.90;;
2888;SDS011;1453;42.708;23.282;2024-01-11T03:49:22;39.83;;;17.27;;
2888;SDS011;1453;42.708;23.282;2024-01-11T03:51:48;34.20;;;16.70;;
2888;SDS011;1453;42.708;23.282;2024-01-11T03:54:14;32.38;;;16.20;;
2888;SDS011;1453;42.708;23.282;2024-01-11T03:59:05;39.03;;;18.00;;
2888;SDS011;1453;42.708;23.282;2024-01-11T04:01:31;31.52;;;15.80;;
2888;SDS011;1453;42.708;23.282;2024-01-11T04:03:58;32.08;;;16.55;;
2888;SDS011;1453;42.708;23.282;2024-01-11T04:06:24;31.50;;;15.47;;
2888;SDS011;1453;42.708;23.282;2024-01-11T04:08:50;33.97;;;16.92;;
2888;SDS011;1453;42.708;23.282;2024-01-11T04:11:17;33.45;;;16.05;;
2888;SDS011;1453;42.708;23.282;2024-01-11T04:13:44;29.92;;;14.40;;
2888;SDS011;1453;42.708;23.282;2024-01-11T04:16:10;26.10;;;14.50;;
2888;SDS011;1453;42.708;23.282;2024-01-11T04:18:36;29.60;;;15.00;;
2888;SDS011;1453;42.708;23.282;2024-01-11T04:21:02;30.02;;;15.18;;
2888;SDS011;1453;42.708;23.282;2024-01-11T04:23:28;26.23;;;14.43;;
2888;SDS011;1453;42.708;23.282;2024-01-11T04:25:55;32.53;;;15.30;;
2888;SDS011;1453;42.708;23.282;2024-01-11T04:28:21;24.48;;;12.98;;
2888;SDS011;1453;42.708;23.282;2024-01-11T04:30:47;28.40;;;14.60;;
2888;SDS011;1453;42.708;23.282;2024-01-11T04:33:13;28.65;;;13.80;;
2888;SDS011;1453;42.708;23.282;2024-01-11T04:35:39;29.45;;;15.23;;
2888;SDS011;1453;42.708;23.282;2024-01-11T04:38:05;27.70;;;14.63;;
2888;SDS011;1453;42.708;23.282;2024-01-11T04:40:31;33.90;;;15.97;;
2888;SDS011;1453;42.708;23.282;2024-01-11T04:42:57;31.00;;;15.68;;
2888;SDS011;1453;42.708;23.282;2024-01-11T04:45:23;36.60;;;19.50;;
2888;SDS011;1453;42.708;23.282;2024-01-11T04:47:50;36.17;;;18.87;;
2888;SDS011;1453;42.708;23.282;2024-01-11T04:50:16;37.63;;;16.50;;
2888;SDS011;1453;42.708;23.282;2024-01-11T04:52:43;40.40;;;20.88;;
2888;SDS011;1453;42.708;23.282;2024-01-11T04:55:08;41.00;;;24.37;;
2888;SDS011;1453;42.708;23.282;2024-01-11T04:57:35;67.78;;;36.30;;
2888;SDS011;1453;42.708;23.282;2024-01-11T05:00:00;59.90;;;32.00;;
2888;SDS011;1453;42.708;23.282;2024-01-11T05:02:27;54.90;;;32.60;;
2888;SDS011;1453;42.708;23.282;2024-01-11T05:04:52;57.73;;;32.53;;
2888;SDS011;1453;42.708;23.282;2024-01-11T05:07:18;48.47;;;29.10;;
2888;SDS011;1453;42.708;23.282;2024-01-11T05:09:44;45.07;;;25.10;;
2888;SDS011;1453;42.708;23.282;2024-01-11T05:12:10;48.70;;;25.50;;
2888;SDS011;1453;42.708;23.282;2024-01-11T05:14:36;49.50;;;28.25;;
2888;SDS011;1453;42.708;23.282;2024-01-11T05:17:02;45.25;;;26.73;;
2888;SDS011;1453;42.708;23.282;2024-01-11T05:19:28;42.40;;;25.92;;
2888;SDS011;1453;42.708;23.282;2024-01-11T05:21:54;49.87;;;26.90;;
2888;SDS011;1453;42.708;23.282;2024-01-11T05:24:21;51.80;;;24.15;;
2888;SDS011;1453;42.708;23.282;2024-01-11T05:26:47;49.57;;;25.20;;
2888;SDS011;1453;42.708;23.282;2024-01-11T05:29:13;37.17;;;22.88;;
2888;SDS011;1453;42.708;23.282;2024-01-11T05:31:39;60.70;;;27.15;;
2888;SDS011;1453;42.708;23.282;2024-01-11T05:34:05;45.22;;;24.35;;
2888;SDS011;1453;42.708;23.282;2024-01-11T05:36:31;53.63;;;26.10;;
2888;SDS011;1453;42.708;23.282;2024-01-11T05:38:57;32.95;;;21.08;;
2888;SDS011;1453;42.708;23.282;2024-01-11T05:41:23;47.55;;;22.55;;
2888;SDS011;1453;42.708;23.282;2024-01-11T05:43:49;39.60;;;19.60;;
2888;SDS011;1453;42.708;23.282;2024-01-11T05:46:15;32.33;;;18.30;;
2888;SDS011;1453;42.708;23.282;2024-01-11T05:48:42;39.90;;;18.48;;
2888;SDS011;1453;42.708;23.282;2024-01-11T05:51:08;35.63;;;18.98;;
2888;SDS011;1453;42.708;23.282;2024-01-11T05:53:34;32.88;;;16.45;;
2888;SDS011;1453;42.708;23.282;2024-01-11T05:56:01;27.55;;;15.63;;
2888;SDS011;1453;42.708;23.282;2024-01-11T05:58:28;24.73;;;14.00;;
2888;SDS011;1453;42.708;23.282;2024-01-11T06:00:54;29.40;;;14.50;;
2888;SDS011;1453;42.708;23.282;2024-01-11T06:03:20;28.80;;;14.50;;
2888;SDS011;1453;42.708;23.282;2024-01-11T06:05:46;32.10;;;15.00;;
2888;SDS011;1453;42.708;23.282;2024-01-11T06:08:12;27.00;;;15.93;;
2888;SDS011;1453;42.708;23.282;2024-01-11T06:10:39;28.03;;;15.60;;
2888;SDS011;1453;42.708;23.282;2024-01-11T06:13:05;31.73;;;16.70;;
2888;SDS011;1453;42.708;23.282;2024-01-11T06:15:31;29.90;;;15.27;;
2888;SDS011;1453;42.708;23.282;2024-01-11T06:17:57;34.55;;;18.27;;
2888;SDS011;1453;42.708;23.282;2024-01-11T06:20:23;27.33;;;16.10;;
2888;SDS011;1453;42.708;23.282;2024-01-11T06:22:49;30.55;;;16.85;;
2888;SDS011;1453;42.708;23.282;2024-01-11T06:25:15;42.40;;;21.07;;
2888;SDS011;1453;42.708;23.282;2024-01-11T06:27:42;38.90;;;22.00;;
2888;SDS011;1453;42.708;23.282;2024-01-11T06:30:08;37.53;;;19.95;;
2888;SDS011;1453;42.708;23.282;2024-01-11T06:32:35;43.83;;;22.50;;
2888;SDS011;1453;42.708;23.282;2024-01-11T06:35:01;42.77;;;24.03;;
2888;SDS011;1453;42.708;23.282;2024-01-11T06:37:28;37.47;;;21.98;;
2888;SDS011;1453;42.708;23.282;2024-01-11T06:39:54;41.97;;;23.05;;
2888;SDS011;1453;42.708;23.282;2024-01-11T06:42:20;47.80;;;22.70;;
2888;SDS011;1453;42.708;23.282;2024-01-11T06:44:46;39.00;;;22.80;;
2888;SDS011;1453;42.708;23.282;2024-01-11T06:47:11;39.93;;;22.57;;
2888;SDS011;1453;42.708;23.282;2024-01-11T06:49:38;39.83;;;23.93;;
2888;SDS011;1453;42.708;23.282;2024-01-11T06:52:08;42.22;;;23.10;;
2888;SDS011;1453;42.708;23.282;2024-01-11T06:54:34;49.70;;;28.50;;
2888;SDS011;1453;42.708;23.282;2024-01-11T06:57:00;53.20;;;27.58;;
2888;SDS011;1453;42.708;23.282;2024-01-11T06:59:29;50.38;;;26.98;;
2888;SDS011;1453;42.708;23.282;2024-01-11T07:01:55;57.83;;;27.33;;
2888;SDS011;1453;42.708;23.282;2024-01-11T07:04:20;39.90;;;24.87;;
2888;SDS011;1453;42.708;23.282;2024-01-11T07:06:47;51.57;;;27.10;;
2888;SDS011;1453;42.708;23.282;2024-01-11T07:09:13;52.15;;;28.70;;
2888;SDS011;1453;42.708;23.282;2024-01-11T07:11:39;57.30;;;27.80;;
2888;SDS011;1453;42.708;23.282;2024-01-11T07:14:06;50.65;;;25.95;;
2888;SDS011;1453;42.708;23.282;2024-01-11T07:16:32;45.67;;;26.33;;
2888;SDS011;1453;42.708;23.282;2024-01-11T07:18:58;46.70;;;26.23;;
2888;SDS011;1453;42.708;23.282;2024-01-11T07:21:24;41.90;;;22.77;;
2888;SDS011;1453;42.708;23.282;2024-01-11T07:23:54;39.97;;;23.95;;
2888;SDS011;1453;42.708;23.282;2024-01-11T07:26:24;31.65;;;17.83;;
2888;SDS011;1453;42.708;23.282;2024-01-11T07:28:50;35.67;;;21.38;;
2888;SDS011;1453;42.708;23.282;2024-01-11T07:31:16;40.10;;;21.80;;
2888;SDS011;1453;42.708;23.282;2024-01-11T07:33:43;42.65;;;22.90;;
2888;SDS011;1453;42.708;23.282;2024-01-11T07:36:10;41.45;;;24.55;;
2888;SDS011;1453;42.708;23.282;2024-01-11T07:38:36;42.10;;;26.60;;
2888;SDS011;1453;42.708;23.282;2024-01-11T07:41:02;40.57;;;25.67;;
2888;SDS011;1453;42.708;23.282;2024-01-11T07:43:28;35.45;;;24.15;;
2888;SDS011;1453;42.708;23.282;2024-01-11T07:45:54;43.17;;;26.97;;
2888;SDS011;1453;42.708;23.282;2024-01-11T07:48:23;50.92;;;28.73;;
2888;SDS011;1453;42.708;23.282;2024-01-11T07:50:49;52.87;;;30.30;;
2888;SDS011;1453;42.708;23.282;2024-01-11T07:53:15;41.38;;;26.60;;
2888;SDS011;1453;42.708;23.282;2024-01-11T07:55:42;40.78;;;24.02;;
2888;SDS011;1453;42.708;23.282;2024-01-11T07:58:08;36.60;;;23.52;;
2888;SDS011;1453;42.708;23.282;2024-01-11T08:00:34;36.90;;;23.00;;
2888;SDS011;1453;42.708;23.282;2024-01-11T08:03:00;33.87;;;21.07;;
2888;SDS011;1453;42.708;23.282;2024-01-11T08:05:26;28.50;;;20.15;;
2888;SDS011;1453;42.708;23.282;2024-01-11T08:07:52;37.63;;;22.70;;
2888;SDS011;1453;42.708;23.282;2024-01-11T08:10:18;33.67;;;21.30;;
2888;SDS011;1453;42.708;23.282;2024-01-11T08:12:44;36.60;;;23.00;;
2888;SDS011;1453;42.708;23.282;2024-01-11T08:15:09;37.90;;;24.50;;
2888;SDS011;1453;42.708;23.282;2024-01-11T08:17:43;36.67;;;24.00;;
2888;SDS011;1453;42.708;23.282;2024-01-11T08:20:12;38.80;;;23.33;;
2888;SDS011;1453;42.708;23.282;2024-01-11T08:22:44;39.85;;;27.15;;
2888;SDS011;1453;42.708;23.282;2024-01-11T08:25:13;38.67;;;25.77;;
2888;SDS011;1453;42.708;23.282;2024-01-11T08:27:39;41.38;;;27.23;;
2888;SDS011;1453;42.708;23.282;2024-01-11T08:30:06;40.75;;;27.90;;
2888;SDS011;1453;42.708;23.282;2024-01-11T08:32:33;48.58;;;28.20;;
2888;SDS011;1453;42.708;23.282;2024-01-11T08:35:04;39.63;;;26.52;;
2888;SDS011;1453;42.708;23.282;2024-01-11T08:37:35;43.58;;;29.20;;
2888;SDS011;1453;42.708;23.282;2024-01-11T08:40:01;49.58;;;30.92;;
2888;SDS011;1453;42.708;23.282;2024-01-11T08:42:30;44.47;;;28.25;;
2888;SDS011;1453;42.708;23.282;2024-01-11T08:44:56;45.95;;;29.73;;
2888;SDS011;1453;42.708;23.282;2024-01-11T08:47:22;46.15;;;28.42;;
2888;SDS011;1453;42.708;23.282;2024-01-11T08:49:48;42.90;;;27.90;;
2888;SDS011;1453;42.708;23.282;2024-01-11T08:52:15;38.40;;;26.50;;
2888;SDS011;1453;42.708;23.282;2024-01-11T08:54:41;38.77;;;25.57;;
2888;SDS011;1453;42.708;23.282;2024-01-11T08:57:07;40.23;;;27.50;;
2888;SDS011;1453;42.708;23.282;2024-01-11T08:59:33;40.60;;;27.60;;
2888;SDS011;1453;42.708;23.282;2024-01-11T09:01:59;42.63;;;27.17;;
2888;SDS011;1453;42.708;23.282;2024-01-11T09:04:25;40.03;;;25.63;;
2888;SDS011;1453;42.708;23.282;2024-01-11T09:06:53;36.97;;;26.42;;
2888;SDS011;1453;42.708;23.282;2024-01-11T09:09:21;35.35;;;23.77;;
2888;SDS011;1453;42.708;23.282;2024-01-11T09:11:47;33.70;;;24.77;;
2888;SDS011;1453;42.708;23.282;2024-01-11T09:14:13;36.83;;;24.43;;
2888;SDS011;1453;42.708;23.282;2024-01-11T09:16:38;35.70;;;23.47;;
2888;SDS011;1453;42.708;23.282;2024-01-11T09:19:05;33.20;;;23.98;;
2888;SDS011;1453;42.708;23.282;2024-01-11T09:21:31;34.30;;;24.17;;
2888;SDS011;1453;42.708;23.282;2024-01-11T09:23:57;33.97;;;23.60;;
2888;SDS011;1453;42.708;23.282;2024-01-11T09:26:24;33.30;;;24.25;;
2888;SDS011;1453;42.708;23.282;2024-01-11T09:28:50;35.42;;;23.95;;
2888;SDS011;1453;42.708;23.282;2024-01-11T09:31:16;31.40;;;21.53;;
2888;SDS011;1453;42.708;23.282;2024-01-11T09:33:41;29.80;;;20.83;;
2888;SDS011;1453;42.708;23.282;2024-01-11T09:36:10;23.15;;;16.13;;
2888;SDS011;1453;42.708;23.282;2024-01-11T09:38:38;23.25;;;17.08;;
2888;SDS011;1453;42.708;23.282;2024-01-11T09:43:34;22.33;;;16.33;;
2888;SDS011;1453;42.708;23.282;2024-01-11T09:46:04;24.23;;;15.88;;
2888;SDS011;1453;42.708;23.282;2024-01-11T09:48:35;23.30;;;17.08;;
2888;SDS011;1453;42.708;23.282;2024-01-11T09:51:03;26.95;;;17.45;;
2888;SDS011;1453;42.708;23.282;2024-01-11T09:53:35;25.05;;;17.67;;
2888;SDS011;1453;42.708;23.282;2024-01-11T09:56:12;28.67;;;20.00;;
2888;SDS011;1453;42.708;23.282;2024-01-11T09:58:38;28.23;;;20.15;;
2888;SDS011;1453;42.708;23.282;2024-01-11T10:01:15;22.35;;;16.20;;
2888;SDS011;1453;42.708;23.282;2024-01-11T10:03:44;26.15;;;18.95;;
2888;SDS011;1453;42.708;23.282;2024-01-11T10:06:13;46.63;;;30.10;;
2888;SDS011;1453;42.708;23.282;2024-01-11T10:08:40;45.77;;;30.90;;
2888;SDS011;1453;42.708;23.282;2024-01-11T10:11:06;43.40;;;29.40;;
2888;SDS011;1453;42.708;23.282;2024-01-11T10:13:32;42.80;;;32.03;;
2888;SDS011;1453;42.708;23.282;2024-01-11T10:18:38;43.20;;;31.50;;
2888;SDS011;1453;42.708;23.282;2024-01-11T10:21:04;44.77;;;31.07;;
2888;SDS011;1453;42.708;23.282;2024-01-11T10:23:33;40.33;;;28.90;;
2888;SDS011;1453;42.708;23.282;2024-01-11T10:26:01;47.73;;;30.70;;
2888;SDS011;1453;42.708;23.282;2024-01-11T10:28:27;37.50;;;26.80;;
2888;SDS011;1453;42.708;23.282;2024-01-11T10:30:53;40.13;;;27.70;;
2888;SDS011;1453;42.708;23.282;2024-01-11T10:33:20;41.92;;;27.80;;
2888;SDS011;1453;42.708;23.282;2024-01-11T10:35:47;40.90;;;26.98;;
2888;SDS011;1453;42.708;23.282;2024-01-11T10:38:15;39.88;;;25.90;;
2888;SDS011;1453;42.708;23.282;2024-01-11T10:40:42;42.45;;;24.85;;
2888;SDS011;1453;42.708;23.282;2024-01-11T10:43:09;32.73;;;23.90;;
2888;SDS011;1453;42.708;23.282;2024-01-11T10:45:36;41.20;;;27.70;;
2888;SDS011;1453;42.708;23.282;2024-01-11T10:48:15;35.90;;;24.13;;
2888;SDS011;1453;42.708;23.282;2024-01-11T10:50:45;41.87;;;24.30;;
2888;SDS011;1453;42.708;23.282;2024-01-11T10:53:25;36.23;;;23.93;;
2888;SDS011;1453;42.708;23.282;2024-01-11T10:56:05;33.87;;;20.80;;
2888;SDS011;1453;42.708;23.282;2024-01-11T10:58:34;42.60;;;28.33;;
2888;SDS011;1453;42.708;23.282;2024-01-11T11:01:01;32.20;;;21.07;;
2888;SDS011;1453;42.708;23.282;2024-01-11T11:03:30;29.73;;;20.67;;
2888;SDS011;1453;42.708;23.282;2024-01-11T11:05:59;32.00;;;22.10;;
2888;SDS011;1453;42.708;23.282;2024-01-11T11:08:26;30.97;;;21.47;;
2888;SDS011;1453;42.708;23.282;2024-01-11T11:10:56;22.73;;;17.23;;
2888;SDS011;1453;42.708;23.282;2024-01-11T11:13:24;25.10;;;17.63;;
2888;SDS011;1453;42.708;23.282;2024-01-11T11:15:51;27.67;;;17.17;;
2888;SDS011;1453;42.708;23.282;2024-01-11T11:18:18;26.10;;;17.83;;
2888;SDS011;1453;42.708;23.282;2024-01-11T11:20:46;28.47;;;17.53;;
2888;SDS011;1453;42.708;23.282;2024-01-11T11:23:16;20.03;;;15.43;;
2888;SDS011;1453;42.708;23.282;2024-01-11T11:25:47;23.70;;;15.80;;
2888;SDS011;1453;42.708;23.282;2024-01-11T11:28:17;20.70;;;16.20;;
2888;SDS011;1453;42.708;23.282;2024-01-11T11:30:47;20.20;;;16.83;;
2888;SDS011;1453;42.708;23.282;2024-01-11T11:35:45;21.07;;;16.60;;
2888;SDS011;1453;42.708;23.282;2024-01-11T11:38:20;19.67;;;15.53;;
2888;SDS011;1453;42.708;23.282;2024-01-11T11:40:50;21.73;;;15.50;;
2888;SDS011;1453;42.708;23.282;2024-01-11T11:43:18;19.80;;;15.40;;
2888;SDS011;1453;42.708;23.282;2024-01-11T11:45:50;24.53;;;16.13;;
2888;SDS011;1453;42.708;23.282;2024-01-11T11:51:13;24.27;;;15.90;;
2888;SDS011;1453;42.708;23.282;2024-01-11T11:53:50;17.83;;;13.77;;
2888;SDS011;1453;42.708;23.282;2024-01-11T11:56:18;17.27;;;13.37;;
2888;SDS011;1453;42.708;23.282;2024-01-11T11:58:46;16.60;;;11.70;;
2888;SDS011;1453;42.708;23.282;2024-01-11T12:01:15;18.00;;;12.90;;
2888;SDS011;1453;42.708;23.282;2024-01-11T12:03:45;16.33;;;12.60;;
2888;SDS011;1453;42.708;23.282;2024-01-11T12:06:14;16.87;;;12.10;;
2888;SDS011;1453;42.708;23.282;2024-01-11T12:08:43;13.40;;;11.87;;
2888;SDS011;1453;42.708;23.282;2024-01-11T12:11:12;15.17;;;12.20;;
2888;SDS011;1453;42.708;23.282;2024-01-11T12:13:40;12.50;;;10.70;;
2888;SDS011;1453;42.708;23.282;2024-01-11T12:16:06;16.17;;;12.30;;
2888;SDS011;1453;42.708;23.282;2024-01-11T12:18:32;12.90;;;11.20;;
2888;SDS011;1453;42.708;23.282;2024-01-11T12:20:58;14.23;;;9.50;;
2888;SDS011;1453;42.708;23.282;2024-01-11T12:23:25;10.07;;;8.60;;
2888;SDS011;1453;42.708;23.282;2024-01-11T12:25:55;8.73;;;7.87;;
2888;SDS011;1453;42.708;23.282;2024-01-11T12:28:23;14.60;;;7.20;;
2888;SDS011;1453;42.708;23.282;2024-01-11T12:30:49;12.80;;;6.60;;
2888;SDS011;1453;42.708;23.282;2024-01-11T12:33:15;7.20;;;6.27;;
2888;SDS011;1453;42.708;23.282;2024-01-11T12:35:42;6.97;;;6.27;;
2888;SDS011;1453;42.708;23.282;2024-01-11T12:38:09;6.20;;;5.60;;
2888;SDS011;1453;42.708;23.282;2024-01-11T12:40:35;7.30;;;6.13;;
2888;SDS011;1453;42.708;23.282;2024-01-11T12:43:03;6.60;;;6.00;;
2888;SDS011;1453;42.708;23.282;2024-01-11T12:45:33;9.40;;;7.33;;
2888;SDS011;1453;42.708;23.282;2024-01-11T12:48:02;9.07;;;6.80;;
2888;SDS011;1453;42.708;23.282;2024-01-11T12:50:31;9.37;;;8.37;;
2888;SDS011;1453;42.708;23.282;2024-01-11T12:53:08;8.00;;;6.80;;
2888;SDS011;1453;42.708;23.282;2024-01-11T12:56:05;8.47;;;7.60;;
2888;SDS011;1453;42.708;23.282;2024-01-11T12:58:34;7.80;;;7.10;;
2888;SDS011;1453;42.708;23.282;2024-01-11T13:01:00;6.93;;;6.23;;
2888;SDS011;1453;42.708;23.282;2024-01-11T13:03:26;9.03;;;6.13;;
2888;SDS011;1453;42.708;23.282;2024-01-11T13:05:56;7.20;;;6.50;;
2888;SDS011;1453;42.708;23.282;2024-01-11T13:08:22;8.93;;;7.27;;
2888;SDS011;1453;42.708;23.282;2024-01-11T13:10:49;6.10;;;5.50;;
2888;SDS011;1453;42.708;23.282;2024-01-11T13:13:15;6.63;;;6.00;;
2888;SDS011;1453;42.708;23.282;2024-01-11T13:15:41;6.90;;;6.20;;
2888;SDS011;1453;42.708;23.282;2024-01-11T13:18:07;8.13;;;6.60;;
2888;SDS011;1453;42.708;23.282;2024-01-11T13:20:33;6.20;;;5.70;;
2888;SDS011;1453;42.708;23.282;2024-01-11T13:25:46;6.57;;;5.97;;
2888;SDS011;1453;42.708;23.282;2024-01-11T13:28:14;6.30;;;5.60;;
2888;SDS011;1453;42.708;23.282;2024-01-11T13:30:42;6.57;;;5.97;;
2888;SDS011;1453;42.708;23.282;2024-01-11T13:33:10;7.32;;;6.13;;
2888;SDS011;1453;42.708;23.282;2024-01-11T13:35:37;7.63;;;6.17;;
2888;SDS011;1453;42.708;23.282;2024-01-11T13:38:04;7.30;;;6.13;;
2888;SDS011;1453;42.708;23.282;2024-01-11T13:40:31;7.97;;;5.97;;
2888;SDS011;1453;42.708;23.282;2024-01-11T13:42:57;7.23;;;5.80;;
2888;SDS011;1453;42.708;23.282;2024-01-11T13:45:24;7.07;;;6.38;;
2888;SDS011;1453;42.708;23.282;2024-01-11T13:47:57;7.50;;;6.40;;
2888;SDS011;1453;42.708;23.282;2024-01-11T13:50:24;7.50;;;6.80;;
2888;SDS011;1453;42.708;23.282;2024-01-11T13:52:51;7.20;;;6.50;;
2888;SDS011;1453;42.708;23.282;2024-01-11T13:55:17;8.77;;;6.23;;
2888;SDS011;1453;42.708;23.282;2024-01-11T13:57:44;6.40;;;5.80;;
2888;SDS011;1453;42.708;23.282;2024-01-11T14:00:10;8.83;;;6.73;;
2888;SDS011;1453;42.708;23.282;2024-01-11T14:02:37;7.07;;;5.70;;
2888;SDS011;1453;42.708;23.282;2024-01-11T14:05:05;7.27;;;6.47;;
2888;SDS011;1453;42.708;23.282;2024-01-11T14:07:37;8.48;;;6.88;;
2888;SDS011;1453;42.708;23.282;2024-01-11T14:10:04;7.10;;;6.00;;
2888;SDS011;1453;42.708;23.282;2024-01-11T14:12:32;7.68;;;6.88;;
2888;SDS011;1453;42.708;23.282;2024-01-11T14:14:58;8.50;;;6.80;;
2888;SDS011;1453;42.708;23.282;2024-01-11T14:17:25;8.05;;;7.35;;
2888;SDS011;1453;42.708;23.282;2024-01-11T14:19:51;8.48;;;7.00;;
2888;SDS011;1453;42.708;23.282;2024-01-11T14:22:17;9.02;;;6.75;;
2888;SDS011;1453;42.708;23.282;2024-01-11T14:24:43;7.87;;;6.57;;
2888;SDS011;1453;42.708;23.282;2024-01-11T14:27:10;9.35;;;7.78;;
2888;SDS011;1453;42.708;23.282;2024-01-11T14:29:36;10.00;;;7.50;;
2888;SDS011;1453;42.708;23.282;2024-01-11T14:32:02;9.57;;;7.73;;
2888;SDS011;1453;42.708;23.282;2024-01-11T14:34:28;8.85;;;7.95;;
2888;SDS011;1453;42.708;23.282;2024-01-11T14:36:54;7.93;;;7.17;;
2888;SDS011;1453;42.708;23.282;2024-01-11T14:39:20;8.35;;;7.07;;
2888;SDS011;1453;42.708;23.282;2024-01-11T14:41:48;7.85;;;7.05;;
2888;SDS011;1453;42.708;23.282;2024-01-11T14:44:14;9.60;;;8.57;;
2888;SDS011;1453;42.708;23.282;2024-01-11T14:46:40;10.20;;;7.77;;
2888;SDS011;1453;42.708;23.282;2024-01-11T14:49:07;10.82;;;8.63;;
2888;SDS011;1453;42.708;23.282;2024-01-11T14:51:33;11.02;;;7.57;;
2888;SDS011;1453;42.708;23.282;2024-01-11T14:54:02;10.90;;;8.30;;
2888;SDS011;1453;42.708;23.282;2024-01-11T14:56:29;10.57;;;8.20;;
2888;SDS011;1453;42.708;23.282;2024-01-11T14:58:56;19.55;;;9.65;;